createdAt,value
2022-10-09T00:02:53.962Z,16.17
2022-10-09T00:05:55.954Z,18.70
2022-10-09T00:08:59.458Z,16.20
2022-10-09T00:12:02.076Z,14.65
2022-10-09T00:15:04.456Z,18.83
2022-10-09T00:18:08.101Z,20.90
2022-10-09T00:21:36.886Z,29.63
2022-10-09T00:24:39.253Z,15.10
2022-10-09T00:27:42.412Z,15.05
2022-10-09T00:30:44.998Z,20.95
2022-10-09T00:33:47.402Z,20.27
2022-10-09T00:36:49.648Z,14.50
2022-10-09T00:39:52.541Z,17.98
2022-10-09T00:42:59.311Z,19.40
2022-10-09T00:46:06.657Z,13.65
2022-10-09T00:49:18.275Z,21.27
2022-10-09T00:52:29.151Z,16.67
2022-10-09T00:55:35.082Z,17.38
2022-10-09T00:58:37.992Z,20.65
2022-10-09T01:01:42.821Z,17.88
2022-10-09T01:04:47.027Z,21.02
2022-10-09T01:08:06.536Z,16.35
2022-10-09T01:11:22.293Z,21.58
2022-10-09T01:14:32.783Z,16.38
2022-10-09T01:17:42.206Z,14.65
2022-10-09T01:21:10.921Z,17.67
2022-10-09T01:24:15.630Z,22.25
2022-10-09T01:27:24.548Z,19.35
2022-10-09T01:30:27.604Z,16.30
2022-10-09T01:33:40.184Z,18.95
2022-10-09T01:36:44.349Z,18.48
2022-10-09T01:40:15.806Z,14.00
2022-10-09T01:43:17.885Z,23.73
2022-10-09T01:46:29.373Z,21.00
2022-10-09T01:49:43.337Z,15.80
2022-10-09T01:53:01.804Z,19.92
2022-10-09T01:56:19.229Z,22.98
2022-10-09T01:59:24.545Z,13.55
2022-10-09T02:02:28.085Z,16.75
2022-10-09T02:05:32.823Z,20.23
2022-10-09T02:08:40.511Z,17.10
2022-10-09T02:11:50.161Z,16.38
2022-10-09T02:14:52.208Z,20.00
2022-10-09T02:18:02.875Z,15.35
2022-10-09T02:21:21.191Z,20.05
2022-10-09T02:24:24.193Z,12.93
2022-10-09T02:27:27.830Z,16.20
2022-10-09T02:30:39.457Z,16.52
2022-10-09T02:33:42.572Z,18.92
2022-10-09T02:36:44.571Z,15.15
2022-10-09T02:39:47.222Z,16.50
2022-10-09T02:42:49.933Z,13.02
2022-10-09T02:45:52.305Z,15.07
2022-10-09T02:48:54.374Z,15.10
2022-10-09T02:51:56.415Z,17.55
2022-10-09T02:54:58.456Z,19.52
2022-10-09T02:58:00.583Z,20.10
2022-10-09T03:01:05.130Z,20.17
2022-10-09T03:04:07.167Z,20.48
2022-10-09T03:07:09.384Z,13.68
2022-10-09T03:10:11.311Z,18.00
2022-10-09T03:13:13.425Z,14.40
2022-10-09T03:16:18.670Z,15.50
2022-10-09T03:19:20.744Z,16.50
2022-10-09T03:22:23.233Z,27.38
2022-10-09T03:25:25.364Z,22.13
2022-10-09T03:28:28.028Z,23.77
2022-10-09T03:34:52.206Z,15.73
2022-10-09T03:37:54.238Z,17.33
2022-10-09T03:40:58.854Z,10.27
2022-10-09T03:44:01.062Z,12.13
2022-10-09T03:47:03.167Z,11.95
2022-10-09T03:50:07.042Z,14.43
2022-10-09T03:53:11.539Z,17.58
2022-10-09T03:56:13.743Z,17.02
2022-10-09T03:59:15.781Z,16.30
2022-10-09T04:02:17.788Z,14.30
2022-10-09T04:05:20.465Z,20.63
2022-10-09T04:08:22.457Z,13.95
2022-10-09T04:11:24.529Z,19.27
2022-10-09T04:14:26.539Z,12.65
2022-10-09T04:17:29.088Z,14.40
2022-10-09T04:20:31.617Z,16.15
2022-10-09T04:23:35.088Z,16.30
2022-10-09T04:26:37.221Z,12.10
2022-10-09T04:29:42.046Z,15.77
2022-10-09T04:32:44.126Z,16.98
2022-10-09T04:35:49.600Z,20.08
2022-10-09T04:38:52.847Z,15.00
2022-10-09T04:41:54.926Z,18.90
2022-10-09T04:44:56.988Z,18.95
2022-10-09T04:47:59.440Z,17.88
2022-10-09T04:51:04.946Z,1.80
2022-10-09T04:54:08.637Z,19.13
2022-10-09T04:57:12.743Z,18.98
2022-10-09T05:00:15.447Z,24.77
2022-10-09T05:03:18.775Z,20.42
2022-10-09T05:06:23.075Z,14.98
2022-10-09T05:09:25.476Z,14.80
2022-10-09T05:12:29.588Z,19.02
2022-10-09T05:15:32.392Z,21.02
2022-10-09T05:18:45.158Z,17.33
2022-10-09T05:21:48.184Z,8.85
2022-10-09T05:24:50.250Z,14.40
2022-10-09T05:27:52.379Z,17.60
2022-10-09T05:30:59.347Z,8.02
2022-10-09T05:34:02.290Z,18.70
2022-10-09T05:37:04.332Z,10.52
2022-10-09T05:40:07.102Z,17.77
2022-10-09T05:43:09.213Z,15.00
2022-10-09T05:46:15.650Z,15.93
2022-10-09T05:49:17.872Z,18.38
2022-10-09T05:52:20.615Z,20.27
2022-10-09T05:55:22.585Z,13.48
2022-10-09T05:58:25.811Z,12.50
2022-10-09T06:01:32.932Z,18.30
2022-10-09T06:04:35.057Z,14.63
2022-10-09T06:07:38.249Z,17.17
2022-10-09T06:10:40.407Z,15.57
2022-10-09T06:13:43.872Z,16.15
2022-10-09T06:16:46.347Z,23.67
2022-10-09T06:19:48.647Z,22.50
2022-10-09T06:22:51.844Z,24.60
2022-10-09T06:25:59.601Z,22.05
2022-10-09T06:29:02.863Z,34.33
2022-10-09T06:32:04.960Z,26.48
2022-10-09T06:35:07.804Z,36.33
2022-10-09T06:38:10.783Z,22.95
2022-10-09T06:41:24.465Z,24.70
2022-10-09T06:44:26.901Z,18.17
2022-10-09T06:47:31.723Z,33.53
2022-10-09T06:50:37.367Z,20.92
2022-10-09T06:53:43.270Z,27.27
2022-10-09T06:56:45.452Z,18.92
2022-10-09T06:59:50.291Z,19.17
2022-10-09T07:02:53.014Z,18.70
2022-10-09T07:06:05.105Z,21.50
2022-10-09T07:09:10.266Z,17.52
2022-10-09T07:12:13.157Z,20.63
2022-10-09T07:15:15.430Z,15.25
2022-10-09T07:18:17.741Z,12.70
2022-10-09T07:21:20.162Z,14.05
2022-10-09T07:24:25.247Z,15.02
2022-10-09T07:27:28.565Z,13.20
2022-10-09T07:30:30.960Z,12.50
2022-10-09T07:33:33.467Z,14.25
2022-10-09T07:36:36.026Z,13.85
2022-10-09T07:39:40.578Z,12.45
2022-10-09T07:42:44.971Z,13.63
2022-10-09T07:45:48.737Z,13.70
2022-10-09T07:48:51.642Z,15.15
2022-10-09T07:51:55.857Z,11.65
2022-10-09T07:54:58.116Z,12.80
2022-10-09T07:58:00.298Z,14.18
2022-10-09T08:01:08.629Z,16.98
2022-10-09T08:04:11.047Z,12.88
2022-10-09T08:07:14.744Z,10.77
2022-10-09T08:10:18.268Z,13.80
2022-10-09T08:13:21.623Z,14.05
2022-10-09T08:16:25.605Z,13.43
2022-10-09T08:19:27.704Z,16.98
2022-10-09T08:22:32.745Z,12.98
2022-10-09T08:25:37.063Z,14.68
2022-10-09T08:28:39.189Z,12.50
2022-10-09T08:31:41.347Z,8.57
2022-10-09T08:34:43.561Z,8.70
2022-10-09T08:37:46.869Z,12.90
2022-10-09T08:41:00.954Z,15.75
2022-10-09T08:44:20.946Z,11.13
2022-10-09T08:47:41.279Z,11.57
2022-10-09T08:50:49.429Z,12.32
2022-10-09T08:53:58.968Z,16.02
2022-10-09T08:57:04.407Z,10.73
2022-10-09T09:00:18.136Z,11.82
2022-10-09T09:03:45.374Z,15.95
2022-10-09T09:07:06.220Z,10.40
2022-10-09T09:10:24.397Z,10.85
2022-10-09T09:13:38.671Z,6.85
2022-10-09T09:17:11.488Z,9.43
2022-10-09T09:20:30.275Z,12.05
2022-10-09T09:23:40.908Z,5.78
2022-10-09T09:26:45.662Z,8.52
2022-10-09T09:30:19.870Z,6.57
2022-10-09T09:33:50.516Z,8.52
2022-10-09T09:36:57.598Z,4.60
2022-10-09T09:43:24.163Z,5.88
2022-10-09T09:46:31.155Z,12.32
2022-10-09T09:49:34.207Z,5.72
2022-10-09T09:52:40.748Z,12.25
2022-10-09T09:55:43.043Z,9.73
2022-10-09T09:58:48.440Z,17.40
2022-10-09T10:02:00.589Z,6.05
2022-10-09T10:05:15.907Z,6.57
2022-10-09T10:08:34.753Z,6.38
2022-10-09T10:11:37.565Z,7.38
2022-10-09T10:14:51.028Z,5.22
2022-10-09T10:18:10.880Z,17.02
2022-10-09T10:21:17.172Z,10.23
2022-10-09T10:24:28.066Z,5.20
2022-10-09T10:27:40.808Z,5.50
2022-10-09T10:30:44.004Z,6.53
2022-10-09T10:33:54.262Z,12.50
2022-10-09T10:37:15.712Z,7.72
2022-10-09T10:40:31.180Z,8.68
2022-10-09T10:43:51.667Z,11.48
2022-10-09T10:47:02.048Z,13.30
2022-10-09T10:50:05.207Z,14.77
2022-10-09T10:53:29.428Z,16.63
2022-10-09T10:56:38.230Z,10.13
2022-10-09T11:00:04.237Z,13.23
2022-10-09T11:03:34.624Z,14.30
2022-10-09T11:07:00.701Z,16.90
2022-10-09T11:10:54.899Z,21.40
2022-10-09T11:14:21.967Z,16.35
2022-10-09T11:17:55.891Z,15.45
2022-10-09T11:21:13.595Z,16.58
2022-10-09T11:24:44.504Z,17.67
2022-10-09T11:27:54.939Z,19.27
2022-10-09T11:34:37.758Z,13.73
2022-10-09T11:37:42.329Z,12.05
2022-10-09T11:40:44.497Z,19.40
2022-10-09T11:44:02.617Z,14.75
2022-10-09T11:47:16.854Z,13.27
2022-10-09T11:50:42.978Z,11.00
2022-10-09T11:53:46.448Z,16.63
2022-10-09T11:57:06.121Z,20.33
2022-10-09T12:00:10.604Z,22.83
2022-10-09T12:03:33.779Z,13.40
2022-10-09T12:06:47.958Z,20.38
2022-10-09T12:09:59.843Z,17.58
2022-10-09T12:13:08.447Z,21.90
2022-10-09T12:16:50.337Z,18.25
2022-10-09T12:20:00.082Z,12.75
2022-10-09T12:23:27.070Z,22.15
2022-10-09T12:26:31.345Z,15.52
2022-10-09T12:29:44.699Z,21.52
2022-10-09T12:32:54.489Z,23.98
2022-10-09T12:36:03.939Z,15.07
2022-10-09T12:39:23.404Z,15.02
2022-10-09T12:42:25.582Z,6.93
2022-10-09T12:45:30.691Z,15.75
2022-10-09T12:48:39.017Z,22.15
2022-10-09T12:51:41.066Z,11.95
2022-10-09T12:54:45.178Z,16.30
2022-10-09T12:57:47.590Z,15.80
2022-10-09T13:00:53.739Z,11.82
2022-10-09T13:04:04.735Z,20.02
2022-10-09T13:07:18.783Z,16.38
2022-10-09T13:10:23.503Z,12.57
2022-10-09T13:13:28.367Z,15.02
2022-10-09T13:16:45.115Z,18.02
2022-10-09T13:19:54.962Z,14.13
2022-10-09T13:23:02.781Z,14.38
2022-10-09T13:26:07.706Z,8.85
2022-10-09T13:29:14.383Z,22.55
2022-10-09T13:32:18.465Z,9.93
2022-10-09T13:35:26.567Z,7.28
2022-10-09T13:38:34.610Z,10.38
2022-10-09T13:44:39.698Z,20.02
2022-10-09T13:47:41.902Z,12.63
2022-10-09T13:50:44.747Z,9.10
2022-10-09T13:53:47.052Z,14.82
2022-10-09T13:56:55.555Z,11.00
2022-10-09T13:59:58.409Z,13.88
2022-10-09T14:03:01.733Z,19.05
2022-10-09T14:06:03.921Z,11.25
2022-10-09T14:09:06.752Z,10.68
2022-10-09T14:12:09.077Z,10.77
2022-10-09T14:15:11.298Z,19.10
2022-10-09T14:18:13.406Z,16.83
2022-10-09T14:21:15.942Z,15.25
2022-10-09T14:24:19.539Z,14.10
2022-10-09T14:27:21.654Z,10.85
2022-10-09T14:30:23.793Z,16.00
2022-10-09T14:33:26.570Z,11.98
2022-10-09T14:36:29.263Z,17.75
2022-10-09T14:39:31.369Z,14.80
2022-10-09T14:42:33.395Z,15.70
2022-10-09T14:45:35.435Z,29.05
2022-10-09T14:48:38.159Z,19.77
2022-10-09T14:51:41.340Z,19.52
2022-10-09T14:54:43.337Z,21.77
2022-10-09T14:57:45.457Z,20.63
2022-10-09T15:00:47.751Z,26.52
2022-10-09T15:03:50.111Z,19.08
2022-10-09T15:06:52.431Z,19.77
2022-10-09T15:09:58.106Z,17.55
2022-10-09T15:13:00.088Z,17.50
2022-10-09T15:16:04.886Z,18.15
2022-10-09T15:19:06.929Z,24.10
2022-10-09T15:22:09.030Z,18.90
2022-10-09T15:25:13.479Z,21.50
2022-10-09T15:28:17.234Z,23.50
2022-10-09T15:31:28.320Z,22.17
2022-10-09T15:34:31.026Z,25.40
2022-10-09T15:37:33.192Z,23.20
2022-10-09T15:40:47.189Z,18.65
2022-10-09T15:43:50.482Z,18.95
2022-10-09T15:46:52.784Z,22.10
2022-10-09T15:49:54.818Z,25.38
2022-10-09T15:52:57.047Z,23.92
2022-10-09T15:56:05.538Z,30.20
2022-10-09T15:59:10.792Z,24.42
2022-10-09T16:02:13.317Z,23.83
2022-10-09T16:05:15.472Z,16.38
2022-10-09T16:08:19.045Z,17.00
2022-10-09T16:11:24.963Z,20.23
2022-10-09T16:14:30.471Z,14.85
2022-10-09T16:17:32.563Z,19.05
2022-10-09T16:20:35.857Z,16.48
2022-10-09T16:23:38.000Z,19.75
2022-10-09T16:26:40.051Z,23.33
2022-10-09T16:29:42.228Z,20.73
2022-10-09T16:32:44.238Z,16.33
2022-10-09T16:35:46.719Z,22.27
2022-10-09T16:38:49.055Z,19.13
2022-10-09T16:41:50.974Z,18.58
2022-10-09T16:44:53.114Z,22.65
2022-10-09T16:48:00.135Z,20.40
2022-10-09T16:51:02.257Z,15.13
2022-10-09T16:54:05.761Z,10.88
2022-10-09T16:57:08.490Z,14.63
2022-10-09T17:00:11.101Z,14.57
2022-10-09T17:03:13.178Z,14.88
2022-10-09T17:06:19.845Z,19.38
2022-10-09T17:09:22.152Z,14.27
2022-10-09T17:12:24.821Z,11.70
2022-10-09T17:15:26.943Z,11.52
2022-10-09T17:18:30.082Z,11.35
2022-10-09T17:21:34.539Z,14.73
2022-10-09T17:24:37.283Z,9.43
2022-10-09T17:27:39.828Z,13.38
2022-10-09T17:30:41.953Z,17.38
2022-10-09T17:33:46.422Z,12.95
2022-10-09T17:36:48.521Z,12.90
2022-10-09T17:39:52.919Z,12.55
2022-10-09T17:42:55.036Z,12.00
2022-10-09T17:45:57.358Z,11.07
2022-10-09T17:49:02.904Z,10.60
2022-10-09T17:52:05.931Z,12.93
2022-10-09T17:55:08.655Z,9.82
2022-10-09T17:58:12.644Z,14.98
2022-10-09T18:01:16.083Z,8.80
2022-10-09T18:04:20.167Z,6.40
2022-10-09T18:07:22.775Z,15.30
2022-10-09T18:10:25.610Z,12.60
2022-10-09T18:13:28.365Z,9.55
2022-10-09T18:16:36.178Z,9.55
2022-10-09T18:19:38.613Z,12.15
2022-10-09T18:22:41.541Z,9.95
2022-10-09T18:25:44.828Z,8.82
2022-10-09T18:28:48.856Z,10.75
2022-10-09T18:31:55.848Z,11.00
2022-10-09T18:34:58.217Z,15.25
2022-10-09T18:38:00.383Z,12.43
2022-10-09T18:41:02.452Z,11.07
2022-10-09T18:44:05.630Z,8.23
2022-10-09T18:47:13.323Z,12.10
2022-10-09T18:50:17.263Z,15.07
2022-10-09T18:53:19.410Z,13.20
2022-10-09T18:56:22.989Z,8.02
2022-10-09T18:59:25.152Z,12.95
2022-10-09T19:02:32.187Z,12.05
2022-10-09T19:05:34.387Z,12.40
2022-10-09T19:08:38.607Z,9.27
2022-10-09T19:11:40.774Z,6.90
2022-10-09T19:14:43.841Z,7.53
2022-10-09T19:17:48.294Z,9.05
2022-10-09T19:20:50.672Z,8.25
2022-10-09T19:23:54.369Z,12.18
2022-10-09T19:27:01.188Z,13.95
2022-10-09T19:30:04.959Z,15.57
2022-10-09T19:33:07.006Z,8.55
2022-10-09T19:36:12.014Z,10.30
2022-10-09T19:39:14.628Z,10.90
2022-10-09T19:42:19.099Z,12.27
2022-10-09T19:45:21.538Z,10.77
2022-10-09T19:48:25.405Z,11.25
2022-10-09T19:51:28.753Z,13.68
2022-10-09T19:54:35.688Z,8.30
2022-10-09T19:57:37.795Z,10.60
2022-10-09T20:00:45.284Z,7.10
2022-10-09T20:03:48.948Z,10.25
2022-10-09T20:06:52.116Z,9.15
2022-10-09T20:09:54.193Z,7.38
2022-10-09T20:12:57.482Z,5.88
2022-10-09T20:16:01.136Z,10.63
2022-10-09T20:19:04.870Z,16.40
2022-10-09T20:22:07.907Z,7.03
2022-10-09T20:25:11.119Z,6.72
2022-10-09T20:28:14.753Z,10.52
2022-10-09T20:31:20.797Z,8.60
2022-10-09T20:34:25.123Z,13.18
2022-10-09T20:37:27.629Z,11.52
2022-10-09T20:40:29.662Z,6.60
2022-10-09T20:43:32.109Z,8.90
2022-10-09T20:46:36.595Z,12.07
2022-10-09T20:49:44.255Z,7.63
2022-10-09T20:52:47.992Z,7.32
2022-10-09T20:55:50.288Z,8.23
2022-10-09T20:58:53.030Z,9.40
2022-10-09T21:01:55.509Z,11.10
2022-10-09T21:04:59.975Z,9.32
2022-10-09T21:08:02.064Z,8.20
2022-10-09T21:11:07.095Z,14.73
2022-10-09T21:14:10.904Z,9.50
2022-10-09T21:17:13.165Z,9.90
2022-10-09T21:20:15.962Z,11.07
2022-10-09T21:23:18.924Z,15.65
2022-10-09T21:26:23.093Z,10.43
2022-10-09T21:29:27.250Z,6.30
2022-10-09T21:32:29.745Z,7.85
2022-10-09T21:35:38.559Z,12.10
2022-10-09T21:38:41.370Z,14.77
2022-10-09T21:41:43.997Z,10.43
2022-10-09T21:44:46.095Z,8.38
2022-10-09T21:47:49.073Z,10.27
2022-10-09T21:50:51.593Z,6.68
2022-10-09T21:53:55.843Z,13.40
2022-10-09T21:56:58.492Z,11.18
2022-10-09T22:00:00.767Z,8.10
2022-10-09T22:03:02.991Z,5.85
2022-10-09T22:06:17.744Z,8.50
2022-10-09T22:09:20.985Z,8.80
2022-10-09T22:12:23.276Z,7.85
2022-10-09T22:15:26.289Z,5.32
2022-10-09T22:18:28.633Z,10.55
2022-10-09T22:21:30.684Z,6.10
2022-10-09T22:24:32.848Z,7.85
2022-10-09T22:27:35.077Z,7.82
2022-10-09T22:30:37.964Z,7.10
2022-10-09T22:33:40.830Z,7.05
2022-10-09T22:36:44.065Z,5.53
2022-10-09T22:39:46.123Z,9.55
2022-10-09T22:42:49.342Z,6.35
2022-10-09T22:45:52.490Z,8.93
2022-10-09T22:48:54.726Z,9.73
2022-10-09T22:51:57.535Z,8.10
2022-10-09T22:55:00.799Z,5.72
2022-10-09T22:58:02.770Z,7.78
2022-10-09T23:01:08.266Z,6.90
2022-10-09T23:04:14.544Z,7.95
2022-10-09T23:07:16.615Z,7.57
2022-10-09T23:10:20.488Z,7.03
2022-10-09T23:13:22.551Z,7.78
2022-10-09T23:16:29.892Z,9.95
2022-10-09T23:19:31.999Z,6.72
2022-10-09T23:22:34.093Z,4.88
2022-10-09T23:25:40.487Z,6.03
2022-10-09T23:28:44.299Z,4.85
2022-10-09T23:31:52.765Z,4.57
2022-10-09T23:34:55.305Z,6.43
2022-10-09T23:37:57.484Z,4.43
2022-10-09T23:41:02.588Z,4.90
2022-10-09T23:44:05.437Z,5.18
2022-10-09T23:47:09.340Z,9.73
2022-10-09T23:50:11.820Z,8.00
2022-10-09T23:53:14.216Z,8.90
2022-10-09T23:56:23.782Z,5.68
